Time;durP1;ratioP1;P1;durP2;ratioP2;P2;SDS_P1;SDS_P2;PMS_P1;PMS_P2;Temp;Humidity;BMP_temperature;BMP_pressure;BME280_temperature;BME280_humidity;BME280_pressure;Samples;Min_cycle;Max_cycle;Signal;HPM_P1;HPM_P2
2022/12/04 00:01:42;;;;;;;29.75;18.67;;;;;;;4.87;59.59;100409.00;5115768;28;20051;-65
2022/12/04 00:04:11;;;;;;;29.30;18.10;;;;;;;4.85;59.96;100402.06;5115965;28;20051;-63
2022/12/04 00:06:39;;;;;;;30.27;19.02;;;;;;;4.82;60.05;100411.75;5112316;28;20059;-63
2022/12/04 00:09:07;;;;;;;29.42;17.88;;;;;;;4.86;60.01;100407.31;5115799;28;20048;-63
2022/12/04 00:11:38;;;;;;;28.90;18.10;;;;;;;4.79;60.65;100401.25;5115289;28;20051;-64
2022/12/04 00:14:09;;;;;;;30.58;18.13;;;;;;;4.80;59.90;100399.31;5112201;28;20070;-64
2022/12/04 00:16:36;;;;;;;30.38;19.00;;;;;;;4.82;60.17;100397.94;5115346;28;20070;-64
2022/12/04 00:19:04;;;;;;;29.25;17.45;;;;;;;4.85;59.87;100402.06;5116089;28;20062;-64
2022/12/04 00:21:32;;;;;;;30.83;17.80;;;;;;;4.86;60.63;100392.69;5115268;28;20051;-64
2022/12/04 00:23:59;;;;;;;29.02;19.08;;;;;;;4.85;59.96;100389.13;5115557;28;20055;-64
2022/12/04 00:26:29;;;;;;;29.02;17.92;;;;;;;4.87;60.21;100389.66;5115113;28;20154;-64
2022/12/04 00:28:58;;;;;;;29.25;17.98;;;;;;;4.93;59.82;100387.72;5113495;28;20044;-63
2022/12/04 00:31:27;;;;;;;26.27;17.87;;;;;;;4.95;59.28;100385.50;5113898;28;20047;-63
2022/12/04 00:33:55;;;;;;;26.80;16.53;;;;;;;4.89;59.96;100381.09;5114465;28;20415;-63
2022/12/04 00:36:25;;;;;;;26.73;17.85;;;;;;;4.86;59.93;100382.47;5115285;28;20047;-64
2022/12/04 00:38:54;;;;;;;28.60;18.70;;;;;;;4.83;59.76;100385.81;5115216;28;20048;-64
2022/12/04 00:41:25;;;;;;;30.58;18.67;;;;;;;4.86;59.47;100387.19;5115199;28;20055;-64
2022/12/04 00:43:53;;;;;;;27.25;17.17;;;;;;;4.94;59.67;100374.75;5111742;28;20052;-64
2022/12/04 00:46:22;;;;;;;30.00;18.05;;;;;;;4.83;59.82;100372.00;5114802;28;20058;-64
2022/12/04 00:48:50;;;;;;;27.45;16.95;;;;;;;4.88;59.93;100379.44;5115068;28;20051;-64
2022/12/04 00:51:23;;;;;;;26.95;17.00;;;;;;;4.87;59.76;100375.88;5114548;28;20048;-63
2022/12/04 00:53:51;;;;;;;25.92;17.67;;;;;;;4.81;60.31;100379.75;5112903;28;20052;-64
2022/12/04 00:56:29;;;;;;;26.85;16.80;;;;;;;4.84;59.79;100373.66;5091121;28;20048;-64
2022/12/04 00:59:00;;;;;;;25.83;17.08;;;;;;;4.86;60.32;100370.63;5106701;28;20078;-63
2022/12/04 01:01:33;;;;;;;25.90;16.38;;;;;;;4.86;60.09;100368.69;5114874;28;20058;-63
2022/12/04 01:04:00;;;;;;;27.80;17.38;;;;;;;4.83;59.52;100369.25;5115298;28;20400;-63
2022/12/04 01:06:30;;;;;;;24.92;16.58;;;;;;;4.84;59.48;100370.06;5114228;28;20055;-64
2022/12/04 01:08:59;;;;;;;25.42;17.00;;;;;;;4.81;59.95;100368.69;5114461;28;20511;-63
2022/12/04 01:11:29;;;;;;;24.20;15.82;;;;;;;4.85;60.17;100374.47;5113493;28;20051;-63
2022/12/04 01:14:00;;;;;;;23.40;15.57;;;;;;;4.90;60.55;100376.41;5112565;28;20059;-63
2022/12/04 01:16:38;;;;;;;25.13;16.63;;;;;;;4.90;59.37;100373.66;5114274;28;20047;-63
2022/12/04 01:19:07;;;;;;;25.83;15.82;;;;;;;4.80;60.35;100378.06;5114479;28;20058;-64
2022/12/04 01:21:36;;;;;;;25.88;16.15;;;;;;;4.80;59.97;100377.25;5114252;28;20048;-64
2022/12/04 01:24:04;;;;;;;25.88;16.70;;;;;;;4.81;59.97;100376.16;5114709;28;20051;-63
2022/12/04 01:26:37;;;;;;;25.08;16.15;;;;;;;4.83;60.00;100373.91;5112538;28;20059;-63
2022/12/04 01:29:07;;;;;;;27.00;16.80;;;;;;;4.83;60.33;100383.06;5114295;28;20055;-63
2022/12/04 01:31:38;;;;;;;23.48;15.85;;;;;;;4.84;60.15;100370.91;5113866;28;20063;-63
2022/12/04 01:34:13;;;;;;;23.45;15.13;;;;;;;4.87;60.37;100378.63;5114359;28;20063;-64
2022/12/04 01:36:41;;;;;;;21.98;15.18;;;;;;;4.87;60.31;100373.09;5114107;28;20507;-64
2022/12/04 01:39:09;;;;;;;25.58;16.58;;;;;;;4.86;60.15;100371.44;5114269;28;20051;-64
2022/12/04 01:41:37;;;;;;;24.42;15.65;;;;;;;4.84;60.22;100376.41;5111526;28;20424;-64
2022/12/04 01:44:13;;;;;;;24.52;15.70;;;;;;;4.86;59.91;100376.16;5113875;28;20051;-64
2022/12/04 01:46:45;;;;;;;23.13;14.23;;;;;;;4.84;59.98;100373.66;5113372;28;20047;-64
2022/12/04 01:49:17;;;;;;;23.73;14.80;;;;;;;4.84;59.99;100361.78;5114069;28;20058;-64
2022/12/04 01:51:49;;;;;;;22.95;14.93;;;;;;;4.88;60.44;100362.88;5113202;28;20048;-64
2022/12/04 01:54:22;;;;;;;23.23;14.90;;;;;;;4.82;60.52;100364.00;5101943;28;20052;-64
2022/12/04 01:57:00;;;;;;;23.05;13.82;;;;;;;4.74;61.02;100354.34;5094678;28;20052;-64
2022/12/04 01:59:34;;;;;;;23.80;15.27;;;;;;;4.67;59.95;100360.16;5093536;28;20064;-64
2022/12/04 02:02:09;;;;;;;24.00;14.95;;;;;;;4.66;60.40;100364.03;5093825;28;20052;-64
2022/12/04 02:04:38;;;;;;;22.52;15.48;;;;;;;4.68;60.07;100359.06;5093249;28;20052;-64
2022/12/04 02:07:09;;;;;;;24.63;15.43;;;;;;;4.65;60.88;100353.28;5093483;28;20048;-64
2022/12/04 02:09:41;;;;;;;21.70;13.73;;;;;;;4.64;60.89;100357.13;5095663;28;20388;-64
2022/12/04 02:12:21;;;;;;;20.63;15.15;;;;;;;4.64;60.97;100352.44;5113425;28;20052;-64
2022/12/04 02:15:00;;;;;;;;;;;;;;;4.58;60.19;100358.25;5114103;28;20062;-64
2022/12/04 02:17:38;;;;;;;23.63;14.55;;;;;;;4.54;60.42;100359.91;5113386;28;19943;-64
2022/12/04 02:20:23;;;;;;;24.52;15.25;;;;;;;4.52;60.54;100356.59;5113156;28;20066;-64
2022/12/04 02:23:29;;;;;;;23.30;14.77;;;;;;;4.41;60.12;100359.38;5113647;28;20052;-64
2022/12/04 02:26:09;;;;;;;21.17;14.32;;;;;;;4.42;60.82;100368.47;5101273;28;20048;-64
2022/12/04 02:28:48;;;;;;;22.67;14.60;;;;;;;4.36;60.79;100364.03;5112953;28;20469;-64
2022/12/04 02:31:20;;;;;;;21.95;14.45;;;;;;;4.34;60.90;100364.31;5112981;28;20047;-64
2022/12/04 02:33:59;;;;;;;21.33;13.27;;;;;;;4.29;61.49;100358.81;5112799;28;20051;-64
2022/12/04 02:36:31;;;;;;;24.23;15.20;;;;;;;4.25;60.60;100352.19;5112738;28;20058;-64
2022/12/04 02:39:04;;;;;;;21.50;13.75;;;;;;;4.16;61.16;100357.44;5108093;28;20387;-64
2022/12/04 02:41:42;;;;;;;21.98;14.07;;;;;;;4.18;61.70;100348.88;5111076;28;20063;-63
2022/12/04 02:44:20;;;;;;;23.40;14.88;;;;;;;4.02;61.39;100359.88;5112669;28;20059;-64
2022/12/04 02:46:50;;;;;;;20.95;13.68;;;;;;;3.93;62.14;100355.19;5111142;28;20058;-64
2022/12/04 02:49:21;;;;;;;22.17;13.95;;;;;;;3.88;61.25;100356.00;5113017;28;20048;-64
2022/12/04 02:51:50;;;;;;;21.92;14.90;;;;;;;3.84;62.78;100360.41;5112244;28;20059;-64
2022/12/04 02:54:23;;;;;;;22.45;14.27;;;;;;;3.78;61.45;100355.97;5110947;28;20051;-64
2022/12/04 02:56:52;;;;;;;24.83;14.40;;;;;;;3.74;62.40;100349.34;5101142;28;20412;-64
2022/12/04 02:59:26;;;;;;;22.27;14.05;;;;;;;3.66;61.44;100359.81;5092591;28;20048;-64
2022/12/04 03:02:00;;;;;;;22.05;13.60;;;;;;;3.65;62.53;100357.31;5104646;28;20056;-64
2022/12/04 03:04:30;;;;;;;24.33;14.90;;;;;;;3.53;63.09;100349.31;5111735;28;20056;-64
2022/12/04 03:07:00;;;;;;;21.70;13.75;;;;;;;3.52;62.75;100352.34;5112944;28;20393;-62
2022/12/04 03:09:35;;;;;;;;;;;;;;;3.39;62.41;100350.91;5105373;28;20044;-63
2022/12/04 03:12:07;;;;;;;17.52;11.88;;;;;;;3.34;63.72;100361.88;5099017;28;19923;-62
2022/12/04 03:14:40;;;;;;;20.58;13.30;;;;;;;3.32;63.54;100370.44;5112397;28;20051;-62
2022/12/04 03:17:15;;;;;;;21.05;13.80;;;;;;;3.30;62.93;100377.28;5112587;28;20051;-62
2022/12/04 03:19:47;;;;;;;20.77;13.05;;;;;;;3.21;63.67;100364.06;5112331;28;20056;-62
2022/12/04 03:22:18;;;;;;;21.00;13.63;;;;;;;3.20;62.41;100365.16;5112655;28;20051;-62
2022/12/04 03:24:50;;;;;;;22.17;13.63;;;;;;;3.18;63.02;100370.09;5112293;28;20052;-62
2022/12/04 03:27:24;;;;;;;20.92;12.65;;;;;;;3.14;63.69;100368.97;5107717;28;20065;-64
2022/12/04 03:29:58;;;;;;;23.08;13.93;;;;;;;3.20;64.18;100367.91;5111441;28;20047;-64
2022/12/04 03:32:30;;;;;;;18.90;13.07;;;;;;;3.15;62.93;100367.88;5112155;28;20048;-64
2022/12/04 03:35:01;;;;;;;19.17;12.60;;;;;;;3.19;62.97;100359.91;5112546;28;20047;-64
2022/12/04 03:37:35;;;;;;;20.15;13.20;;;;;;;3.12;63.33;100360.16;5110014;28;20055;-64
2022/12/04 03:40:09;;;;;;;18.00;12.40;;;;;;;3.12;64.02;100357.41;5112554;28;20047;-64
2022/12/04 03:42:42;;;;;;;19.65;12.82;;;;;;;3.12;65.26;100360.16;5111948;28;20051;-64
2022/12/04 03:45:19;;;;;;;21.10;13.50;;;;;;;3.14;65.39;100359.88;5112471;28;20058;-64
2022/12/04 03:47:55;;;;;;;19.38;12.27;;;;;;;3.18;64.18;100353.56;5111981;28;20061;-64
2022/12/04 03:50:30;;;;;;;20.45;12.23;;;;;;;3.27;63.96;100356.63;5109822;28;20060;-64
2022/12/04 03:53:04;;;;;;;18.45;12.43;;;;;;;3.34;64.63;100356.38;5110631;28;20530;-64
2022/12/04 03:55:39;;;;;;;18.88;12.13;;;;;;;3.40;64.05;100353.41;5111872;28;20053;-64
2022/12/04 03:58:12;;;;;;;18.58;12.15;;;;;;;3.46;64.94;100359.75;5071295;28;20052;-64
2022/12/04 04:00:44;;;;;;;17.25;11.52;;;;;;;3.52;64.64;100347.66;5070789;28;20053;-64
2022/12/04 04:03:16;;;;;;;20.08;12.55;;;;;;;3.60;64.42;100349.06;5071438;28;20473;-64
2022/12/04 04:05:46;;;;;;;19.02;11.77;;;;;;;3.63;64.16;100354.84;5071403;28;20079;-64
2022/12/04 04:08:26;;;;;;;18.80;12.60;;;;;;;3.68;64.11;100358.72;5095590;28;20052;-64
2022/12/04 04:10:57;;;;;;;20.00;13.43;;;;;;;3.75;64.60;100356.53;5085334;28;20052;-64
2022/12/04 04:24:43;;;;;;;18.38;12.23;;;;;;;3.99;62.82;100371.47;5089025;28;20059;-64
2022/12/04 04:27:10;;;;;;;18.48;12.50;;;;;;;3.97;63.66;100372.81;5115378;28;20052;-64
2022/12/04 04:29:38;;;;;;;18.17;12.27;;;;;;;3.97;63.23;100365.41;5115261;28;20469;-64
2022/12/04 04:32:13;;;;;;;18.92;12.52;;;;;;;4.04;63.49;100365.13;5115263;28;20405;-64
2022/12/04 04:34:49;;;;;;;18.58;11.88;;;;;;;4.11;63.17;100357.41;5115290;28;20063;-64
2022/12/04 04:37:26;;;;;;;18.50;12.02;;;;;;;4.21;62.96;100362.13;5108115;28;20052;-64
2022/12/04 04:40:03;;;;;;;16.77;11.95;;;;;;;4.20;62.49;100363.19;5115100;28;20242;-64
2022/12/04 04:42:40;;;;;;;19.55;12.15;;;;;;;4.20;62.72;100363.19;5115230;28;20408;-64
2022/12/04 04:45:14;;;;;;;20.20;12.00;;;;;;;4.24;62.74;100367.06;5115344;28;20048;-64
2022/12/04 04:47:47;;;;;;;18.05;12.07;;;;;;;4.30;62.79;100363.22;5115060;28;20051;-64
2022/12/04 04:50:16;;;;;;;17.15;11.55;;;;;;;4.23;63.39;100357.97;5113667;28;20048;-64
2022/12/04 04:52:47;;;;;;;15.87;10.97;;;;;;;4.32;62.38;100351.91;5114392;28;20070;-64
2022/12/04 04:55:16;;;;;;;15.57;10.35;;;;;;;4.34;62.54;100352.47;5115165;28;20113;-64
2022/12/04 04:57:44;;;;;;;14.60;10.93;;;;;;;4.42;61.89;100351.91;5096729;28;20473;-64
2022/12/04 05:00:14;;;;;;;14.40;10.65;;;;;;;4.46;61.36;100351.06;5094567;28;20456;-64
2022/12/04 05:02:43;;;;;;;12.52;9.38;;;;;;;4.45;60.67;100354.09;5094475;28;20055;-64
2022/12/04 05:05:16;;;;;;;14.27;9.60;;;;;;;4.39;60.03;100345.03;5093360;28;20044;-64
2022/12/04 05:07:43;;;;;;;13.10;9.70;;;;;;;4.42;61.03;100349.97;5086933;28;20567;-64
2022/12/04 05:10:13;;;;;;;12.25;8.75;;;;;;;4.38;59.88;100354.38;5114768;28;20048;-64
2022/12/04 05:12:40;;;;;;;13.18;9.20;;;;;;;4.41;59.90;100348.34;5114262;28;20051;-64
2022/12/04 05:15:11;;;;;;;11.57;8.63;;;;;;;4.42;59.84;100354.66;5114611;28;20055;-64
2022/12/04 05:17:39;;;;;;;13.05;8.88;;;;;;;4.46;59.63;100350.25;5103680;28;20079;-64
2022/12/04 05:20:09;;;;;;;13.95;9.60;;;;;;;4.45;60.00;100348.59;5088974;28;20048;-64
2022/12/04 05:22:36;;;;;;;;;;;;;;;4.41;58.95;100345.56;5110771;28;20125;-64
2022/12/04 05:25:05;;;;;;;12.88;8.88;;;;;;;4.44;58.84;100342.25;5114743;28;19948;-64
2022/12/04 05:27:34;;;;;;;13.15;9.00;;;;;;;4.38;58.47;100340.59;5114404;28;20511;-64
2022/12/04 05:30:01;;;;;;;12.50;8.30;;;;;;;4.17;59.00;100342.53;5106742;28;20058;-64
2022/12/04 05:32:29;;;;;;;14.45;9.07;;;;;;;4.06;59.64;100340.88;5093388;28;20048;-64
2022/12/04 05:34:57;;;;;;;13.23;8.85;;;;;;;4.04;59.59;100335.63;5092319;28;20067;-65
2022/12/04 05:37:26;;;;;;;14.00;9.38;;;;;;;4.03;59.00;100336.75;5108566;28;20447;-64
2022/12/04 05:39:53;;;;;;;11.98;9.00;;;;;;;3.98;60.29;100342.25;5113766;28;20051;-64
2022/12/04 05:42:21;;;;;;;14.07;8.55;;;;;;;4.03;59.45;100342.25;5113667;28;20059;-64
2022/12/04 05:44:49;;;;;;;13.60;9.43;;;;;;;4.07;59.35;100331.50;5111854;28;20055;-64
2022/12/04 05:47:16;;;;;;;12.45;8.90;;;;;;;4.00;59.16;100331.78;5113857;28;20052;-64
2022/12/04 05:49:44;;;;;;;12.50;9.15;;;;;;;3.99;59.30;100338.41;5113403;28;20051;-64
2022/12/04 05:52:11;;;;;;;13.93;9.60;;;;;;;4.04;59.72;100340.31;5113021;28;20074;-64
2022/12/04 05:54:40;;;;;;;13.40;8.75;;;;;;;4.04;59.04;100338.38;5113533;28;20059;-64
2022/12/04 05:57:07;;;;;;;13.93;9.10;;;;;;;4.06;59.89;100346.38;5100531;28;20051;-64
2022/12/04 05:59:35;;;;;;;14.65;9.05;;;;;;;3.99;59.78;100335.63;5103449;28;20059;-64
2022/12/04 06:02:05;;;;;;;13.85;9.35;;;;;;;3.97;60.70;100343.34;5113422;28;20412;-64
2022/12/04 06:04:32;;;;;;;;;;;;;;;4.02;60.52;100343.34;5113846;28;20059;-64
2022/12/04 06:06:59;;;;;;;12.10;8.55;;;;;;;4.00;60.48;100348.31;5113371;28;20291;-64
2022/12/04 06:09:27;;;;;;;12.48;8.77;;;;;;;3.99;60.54;100345.81;5113658;28;20052;-65
2022/12/04 06:11:57;;;;;;;13.18;8.57;;;;;;;3.93;59.73;100357.97;5112903;28;20055;-64
2022/12/04 06:14:24;;;;;;;14.60;9.77;;;;;;;3.89;60.05;100352.16;5111916;28;20051;-64
2022/12/04 06:16:52;;;;;;;15.25;9.68;;;;;;;3.88;59.71;100350.47;5113040;28;20047;-64
2022/12/04 06:19:21;;;;;;;13.75;9.27;;;;;;;3.84;60.03;100354.88;5108322;28;20067;-64
2022/12/04 06:21:50;;;;;;;14.48;10.13;;;;;;;3.74;60.21;100349.34;5092599;28;20056;-64
2022/12/04 06:24:20;;;;;;;13.98;9.40;;;;;;;3.70;60.98;100349.09;5093080;28;20048;-64
2022/12/04 06:26:47;;;;;;;;;;;;;;;3.55;60.54;100346.28;5093023;28;20051;-64
2022/12/04 06:29:17;;;;;;;12.73;8.98;;;;;;;3.57;60.98;100346.81;5110013;28;20296;-64
2022/12/04 06:31:44;;;;;;;14.27;10.00;;;;;;;3.51;61.26;100340.50;5111745;28;20047;-63
2022/12/04 06:34:12;;;;;;;13.48;9.30;;;;;;;3.70;61.05;100345.50;5113018;28;20499;-64
2022/12/04 06:36:39;;;;;;;11.32;8.68;;;;;;;3.76;60.57;100347.16;5111028;28;20055;-64
2022/12/04 06:39:17;;;;;;;13.68;9.60;;;;;;;3.82;60.60;100354.31;5112998;28;20051;-64
2022/12/04 06:41:46;;;;;;;13.65;9.45;;;;;;;3.89;61.42;100346.66;5110833;28;20404;-64
2022/12/04 06:44:14;;;;;;;12.57;9.15;;;;;;;4.02;60.87;100354.38;5113194;28;20085;-64
2022/12/04 06:46:46;;;;;;;13.27;8.75;;;;;;;4.12;60.15;100345.28;5112855;28;20055;-64
2022/12/04 06:49:13;;;;;;;12.15;8.30;;;;;;;4.21;60.26;100345.56;5111492;28;20056;-64
2022/12/04 06:51:43;;;;;;;12.57;9.27;;;;;;;4.21;60.47;100349.16;5110879;28;20055;-64
2022/12/04 06:54:12;;;;;;;13.43;9.55;;;;;;;4.19;59.88;100356.03;5113231;28;20051;-64
2022/12/04 06:56:40;;;;;;;14.43;10.27;;;;;;;4.25;59.31;100361.28;5103246;28;20070;-64
2022/12/04 06:59:07;;;;;;;14.50;10.20;;;;;;;4.26;60.20;100353.81;5092611;28;20051;-64
2022/12/04 07:01:35;;;;;;;13.10;9.60;;;;;;;4.33;59.49;100353.56;5092187;28;20056;-64
2022/12/04 07:04:04;;;;;;;13.18;9.07;;;;;;;4.31;59.33;100353.84;5100001;28;20056;-64
2022/12/04 07:06:34;;;;;;;12.33;9.73;;;;;;;4.16;60.29;100340.88;5110243;28;20059;-64
2022/12/04 07:09:05;;;;;;;13.30;9.43;;;;;;;4.24;59.11;100354.13;5110710;28;20842;-64
2022/12/04 07:11:33;;;;;;;13.82;9.82;;;;;;;4.25;59.92;100358.53;5112609;28;20052;-64
2022/12/04 07:14:00;;;;;;;12.93;8.55;;;;;;;4.23;59.87;100362.66;5112335;28;20412;-64
2022/12/04 07:16:29;;;;;;;13.80;8.70;;;;;;;4.19;58.89;100359.63;5112648;28;20056;-64
2022/12/04 07:18:56;;;;;;;12.77;9.43;;;;;;;4.26;59.81;100356.59;5111468;28;20055;-64
2022/12/04 07:21:27;;;;;;;15.55;10.23;;;;;;;4.19;59.43;100356.03;5103750;28;20043;-64
2022/12/04 07:23:57;;;;;;;12.77;8.82;;;;;;;4.17;59.20;100356.31;5111951;28;20048;-64
2022/12/04 07:26:27;;;;;;;13.55;9.00;;;;;;;4.21;59.49;100356.59;5100380;28;20063;-65
2022/12/04 07:28:55;;;;;;;13.73;9.60;;;;;;;4.23;59.61;100366.25;5092051;28;20058;-64
2022/12/04 07:31:24;;;;;;;12.57;8.23;;;;;;;4.28;59.73;100359.91;5091860;28;20059;-64
2022/12/04 07:33:53;;;;;;;13.32;8.95;;;;;;;4.16;59.89;100356.56;5092030;28;20055;-65
2022/12/04 07:36:21;;;;;;;12.27;8.98;;;;;;;4.31;59.62;100364.06;5097789;28;20464;-64
2022/12/04 07:38:51;;;;;;;12.75;8.98;;;;;;;4.37;59.88;100361.03;5110330;28;20507;-65
2022/12/04 07:41:18;;;;;;;11.75;8.88;;;;;;;4.33;60.10;100359.91;5112554;28;20052;-65
2022/12/04 07:43:47;;;;;;;12.10;7.97;;;;;;;4.32;58.69;100358.25;5116105;28;20137;-64
2022/12/04 07:46:17;;;;;;;13.25;9.63;;;;;;;4.33;59.88;100356.34;5108632;28;20051;-65
2022/12/04 07:48:44;;;;;;;13.98;8.48;;;;;;;4.34;59.65;100357.97;5113956;28;20052;-65
2022/12/04 07:51:14;;;;;;;11.98;7.97;;;;;;;4.39;58.58;100361.56;5116019;28;20052;-65
2022/12/04 07:53:50;;;;;;;14.02;9.13;;;;;;;4.37;59.15;100362.97;5116442;28;20070;-65
2022/12/04 07:56:23;;;;;;;10.63;8.20;;;;;;;4.39;59.36;100357.97;5105677;28;20052;-64
2022/12/04 07:58:50;;;;;;;10.70;8.27;;;;;;;4.40;60.03;100356.88;5098525;28;20059;-64
2022/12/04 08:01:20;;;;;;;13.07;9.20;;;;;;;4.47;59.38;100369.28;5116032;28;20051;-64
2022/12/04 08:03:53;;;;;;;12.80;10.38;;;;;;;4.51;59.33;100365.97;5097001;28;20052;-64
2022/12/04 08:06:23;;;;;;;14.00;9.80;;;;;;;4.52;59.36;100371.22;5095795;28;20059;-64
2022/12/04 08:08:50;;;;;;;;;;;;;;;4.46;58.60;100369.56;5102060;28;20051;-64
2022/12/04 08:11:27;;;;;;;13.38;9.55;;;;;;;4.55;59.82;100378.09;5116252;28;19942;-64
2022/12/04 08:13:59;;;;;;;12.52;8.40;;;;;;;4.52;59.35;100381.44;5110350;28;20040;-64
2022/12/04 08:16:29;;;;;;;12.25;8.50;;;;;;;4.58;58.87;100377.56;5096137;28;20060;-64
2022/12/04 08:19:02;;;;;;;;;;;;;;;4.57;58.12;100379.47;5095540;28;20461;-64
2022/12/04 08:21:34;;;;;;;11.88;9.27;;;;;;;4.51;59.04;100368.72;5095115;28;19923;-64
2022/12/04 08:24:03;;;;;;;13.30;9.77;;;;;;;4.50;59.24;100369.84;5094452;28;20059;-65
2022/12/04 08:26:33;;;;;;;14.23;10.05;;;;;;;4.52;58.45;100381.44;5094235;28;20055;-64
2022/12/04 08:29:06;;;;;;;14.15;9.63;;;;;;;4.53;58.75;100378.38;5090261;28;20055;-64
2022/12/04 08:31:38;;;;;;;13.50;9.00;;;;;;;4.64;58.80;100381.94;5086719;28;20507;-64
2022/12/04 08:34:10;;;;;;;12.23;8.88;;;;;;;4.48;58.97;100386.66;5092089;28;20048;-64
2022/12/04 08:36:41;;;;;;;13.90;9.48;;;;;;;4.45;58.32;100387.19;5096623;28;20048;-64
2022/12/04 08:39:11;;;;;;;12.90;9.15;;;;;;;4.53;58.89;100392.16;5092973;28;20062;-65
2022/12/04 08:41:41;;;;;;;12.70;9.48;;;;;;;4.59;58.53;100382.78;5091838;28;20052;-64
2022/12/04 08:44:10;;;;;;;13.57;9.25;;;;;;;4.64;58.25;100390.22;5093576;28;20052;-65
2022/12/04 08:46:39;;;;;;;13.50;9.48;;;;;;;4.58;58.44;100375.63;5089004;28;20397;-64
2022/12/04 08:49:06;;;;;;;11.03;8.27;;;;;;;4.62;58.51;100381.41;5091389;28;20067;-64
2022/12/04 08:51:35;;;;;;;10.70;8.18;;;;;;;4.48;57.98;100378.38;5093721;28;20052;-64
2022/12/04 08:54:06;;;;;;;15.45;10.15;;;;;;;4.47;59.19;100379.47;5089379;28;20055;-64
2022/12/04 08:56:40;;;;;;;13.93;9.77;;;;;;;4.59;58.77;100379.22;5090305;28;20043;-64
2022/12/04 08:59:13;;;;;;;13.23;9.50;;;;;;;4.73;58.83;100380.31;5093616;28;20519;-59
2022/12/04 09:01:40;;;;;;;13.20;8.75;;;;;;;4.54;58.11;100388.31;5093523;28;20052;-65
2022/12/04 09:04:11;;;;;;;12.05;9.32;;;;;;;4.73;58.69;100388.59;5092167;28;20059;-64
2022/12/04 09:06:39;;;;;;;12.13;8.98;;;;;;;4.80;57.48;100399.31;5093003;28;20067;-64
2022/12/04 09:09:11;;;;;;;14.32;10.23;;;;;;;4.74;57.68;100383.88;5104475;28;20055;-63
2022/12/04 09:11:41;;;;;;;15.07;11.15;;;;;;;4.79;58.68;100381.13;5102454;28;20059;-65
2022/12/04 09:14:18;;;;;;;15.15;9.98;;;;;;;4.87;58.46;100386.91;5092489;28;20054;-64
2022/12/04 09:16:48;;;;;;;15.88;11.77;;;;;;;4.90;57.71;100387.47;5092900;28;20048;-63
2022/12/04 09:19:16;;;;;;;12.70;8.93;;;;;;;5.02;57.79;100390.75;5092490;28;20044;-63
2022/12/04 09:21:44;;;;;;;12.40;8.75;;;;;;;5.11;56.90;100380.78;5088995;28;20420;-63
2022/12/04 09:24:12;;;;;;;11.52;8.75;;;;;;;5.14;57.77;100382.16;5113016;28;20063;-63
2022/12/04 09:26:40;;;;;;;13.55;9.80;;;;;;;5.18;57.03;100383.25;5104345;28;20048;-63
2022/12/04 09:29:07;;;;;;;13.35;10.15;;;;;;;5.25;57.02;100386.56;5093827;28;20051;-64
2022/12/04 09:31:36;;;;;;;14.38;10.23;;;;;;;5.19;57.23;100380.22;5092306;28;20071;-63
2022/12/04 09:34:04;;;;;;;13.70;10.05;;;;;;;5.20;57.41;100381.03;5093874;28;20055;-64
2022/12/04 09:36:34;;;;;;;14.43;9.18;;;;;;;5.25;56.71;100390.13;5108070;28;20058;-64
2022/12/04 09:39:04;;;;;;;12.70;8.70;;;;;;;5.26;56.58;100394.53;5113673;28;20078;-64
2022/12/04 09:41:49;;;;;;;14.95;10.20;;;;;;;5.18;56.65;100386.81;5092336;28;20416;-63
2022/12/04 09:44:21;;;;;;;13.80;9.35;;;;;;;5.21;56.51;100389.03;5091641;28;20056;-64
2022/12/04 09:46:55;;;;;;;12.13;9.23;;;;;;;5.09;57.40;100383.81;5092857;28;20497;-64
2022/12/04 09:49:29;;;;;;;14.68;9.85;;;;;;;5.13;56.58;100395.13;5092970;28;20493;-64
2022/12/04 09:52:05;;;;;;;14.45;10.02;;;;;;;5.10;57.39;100390.16;5093731;28;20048;-64
2022/12/04 09:54:39;;;;;;;13.85;9.60;;;;;;;5.07;57.14;100394.31;5090809;28;20060;-63
2022/12/04 09:57:15;;;;;;;14.18;10.45;;;;;;;5.12;57.46;100396.22;5090492;28;20055;-63
2022/12/04 09:59:44;;;;;;;13.30;9.02;;;;;;;5.05;57.10;100395.69;5092102;28;20427;-64
2022/12/04 10:02:28;;;;;;;15.70;10.20;;;;;;;4.77;57.69;100394.38;5091599;28;20381;-64
2022/12/04 10:04:56;;;;;;;13.80;8.82;;;;;;;4.79;57.89;100398.50;5090796;28;20059;-64
2022/12/04 10:07:29;;;;;;;13.82;9.45;;;;;;;4.64;58.13;100391.06;5099310;28;20405;-63
2022/12/04 10:10:03;;;;;;;16.70;10.88;;;;;;;4.61;58.29;100385.28;5093168;28;20404;-64
2022/12/04 10:12:40;;;;;;;12.95;9.18;;;;;;;4.69;58.50;100387.47;5085073;28;20040;-64
2022/12/04 10:15:17;;;;;;;16.15;10.77;;;;;;;4.63;59.42;100383.06;5088928;28;20404;-64
2022/12/04 10:18:09;;;;;;;15.25;10.10;;;;;;;4.73;58.71;100383.06;5088431;28;20583;-63
2022/12/04 10:21:05;;;;;;;17.00;10.68;;;;;;;4.77;59.06;100378.63;5089969;28;20051;-63
2022/12/04 10:23:47;;;;;;;14.80;10.75;;;;;;;4.65;59.10;100381.69;5086582;28;20052;-64
2022/12/04 10:26:25;;;;;;;14.65;11.00;;;;;;;4.71;60.06;100376.19;5083737;28;20052;-64
2022/12/04 10:29:00;;;;;;;13.27;9.57;;;;;;;4.91;58.88;100375.31;5089617;28;20484;-64
2022/12/04 10:31:32;;;;;;;13.57;10.15;;;;;;;5.04;58.68;100380.22;5090463;28;20058;-64
2022/12/04 10:34:08;;;;;;;14.48;10.02;;;;;;;5.11;57.99;100383.53;5084970;28;20402;-63
2022/12/04 10:36:36;;;;;;;13.07;10.15;;;;;;;5.10;58.03;100373.59;5091330;28;20052;-64
2022/12/04 10:39:10;;;;;;;14.75;10.68;;;;;;;5.21;57.80;100361.41;5090410;28;20044;-64
2022/12/04 10:41:43;;;;;;;14.25;9.52;;;;;;;5.32;57.98;100356.69;5090282;28;20048;-64
2022/12/04 10:44:16;;;;;;;13.13;9.25;;;;;;;5.44;57.99;100354.44;5090740;28;20493;-64
2022/12/04 10:46:57;;;;;;;14.27;11.52;;;;;;;5.66;57.59;100356.78;5091026;28;20138;-64
2022/12/04 10:52:22;;;;;;;12.27;8.80;;;;;;;5.90;56.61;100345.06;5081947;28;20051;-65
2022/12/04 10:54:56;;;;;;;12.73;9.23;;;;;;;5.92;56.37;100340.06;5089588;28;20048;-65
2022/12/04 10:57:39;;;;;;;12.68;8.73;;;;;;;6.14;55.90;100341.63;5090925;28;20044;-65
2022/12/04 11:00:26;;;;;;;17.13;11.95;;;;;;;6.22;55.97;100329.94;5089538;28;20067;-65
2022/12/04 11:02:56;;;;;;;15.13;10.52;;;;;;;6.34;55.40;100324.00;5089048;28;20485;-65
2022/12/04 11:05:27;;;;;;;;;;;;;;;6.25;55.77;100312.75;5088179;28;20051;-65
2022/12/04 11:07:57;;;;;;;15.10;10.23;;;;;;;6.49;55.45;100304.53;5092248;28;19946;-65
2022/12/04 11:10:33;;;;;;;15.32;10.68;;;;;;;6.50;55.55;100298.69;5086443;28;20409;-65
2022/12/04 11:13:03;;;;;;;14.80;10.68;;;;;;;6.63;54.71;100304.66;5071863;28;20057;-64
2022/12/04 11:15:30;;;;;;;;;;;;;;;6.51;54.90;100305.06;5095005;28;20059;-64
2022/12/04 11:18:13;;;;;;;16.30;10.93;;;;;;;6.57;55.35;100308.59;5089970;28;20372;-63
2022/12/04 11:20:53;;;;;;;15.80;10.82;;;;;;;6.50;54.88;100304.22;5092186;28;20056;-64
2022/12/04 11:23:21;;;;;;;;;;;;;;;6.31;55.97;100306.06;5092598;28;20111;-64
2022/12/04 11:25:54;;;;;;;14.55;10.70;;;;;;;6.30;56.06;100304.44;5091941;28;20295;-63
2022/12/04 11:28:27;;;;;;;16.65;11.73;;;;;;;6.26;56.69;100304.16;5099893;28;20051;-64
2022/12/04 11:31:00;;;;;;;22.38;15.77;;;;;;;6.32;56.23;100307.72;5112503;28;20054;-63
2022/12/04 11:33:39;;;;;;;18.35;12.18;;;;;;;6.34;56.57;100310.19;5112437;28;20048;-63
2022/12/04 11:36:20;;;;;;;20.33;13.65;;;;;;;6.25;56.85;100308.03;5109411;28;20077;-63
2022/12/04 11:38:49;;;;;;;20.50;13.65;;;;;;;6.29;57.04;100305.53;5112240;28;20052;-63
2022/12/04 11:41:26;;;;;;;18.35;13.63;;;;;;;6.27;57.48;100300.28;5112071;28;20058;-66
2022/12/04 11:43:53;;;;;;;17.88;12.52;;;;;;;6.35;56.84;100298.03;5109196;28;20491;-64
2022/12/04 11:46:25;;;;;;;19.13;12.25;;;;;;;6.29;57.50;100292.50;5111618;28;20051;-65
2022/12/04 11:48:53;;;;;;;16.45;12.02;;;;;;;6.39;56.89;100291.59;5111993;28;20047;-65
2022/12/04 11:51:35;;;;;;;18.33;12.35;;;;;;;6.38;57.38;100283.59;5111222;28;20052;-67
2022/12/04 11:54:10;;;;;;;19.45;13.30;;;;;;;6.35;57.59;100293.31;5106362;28;20044;-64
2022/12/04 11:56:42;;;;;;;18.50;12.63;;;;;;;6.34;57.56;100293.59;5091821;28;20052;-64
2022/12/04 11:59:42;;;;;;;17.33;11.90;;;;;;;6.37;57.79;100285.53;5095454;28;20051;-64